Penn Wynne, Pennsylvania
Current Conditions -  °F | °C
As of 1:54 AM on Thursday 18 Dec 2014 (Local Time) from KPHL Reporting Station
Scattered Clouds Scattered Clouds  
Wind Chill: 28°   Ceiling: Unl
Heat Index: 37°   Visibility: 10mi
Dew Point: 23°   Wind: 15mph
Humidity: 57%   Direction: 290°WNW
Pressure: 30"   Gusts: NA
Location:  39.9976°N, 75.2742°W
Report Text: KPHL 180654Z 29013KT 10SM SCT060 03/M05 A3000 RMK AO2 SLP159 T00281050
Loading
Personal Weather Stations






























Interactive Weather Map New forecast layout! Learn more

10-Day Weather Forecast

Advertisements
Track Severe Weather on mobile